createdAt,value
2023-02-04T14:39:01.654Z,12.68
2023-02-04T14:46:35.663Z,12.32
2023-02-04T14:49:05.963Z,11.48
2023-02-04T14:51:36.211Z,11.02
2023-02-04T14:54:07.605Z,11.15
2023-02-04T14:56:38.630Z,10.55
2023-02-04T14:59:09.129Z,11.45
2023-02-04T15:01:39.565Z,9.85
2023-02-04T15:04:12.022Z,10.60
2023-02-04T15:06:42.462Z,10.45
2023-02-04T15:09:12.721Z,11.45
2023-02-04T15:11:42.870Z,10.48
2023-02-04T15:14:15.824Z,12.63
2023-02-04T15:16:53.306Z,11.70
2023-02-04T15:19:25.989Z,11.00
2023-02-04T15:21:56.391Z,11.80
2023-02-04T15:24:29.098Z,11.43
2023-02-04T15:26:59.336Z,10.52
2023-02-04T15:29:29.807Z,11.25
2023-02-04T15:32:00.287Z,10.98
2023-02-04T15:34:32.865Z,10.38
2023-02-04T15:37:12.420Z,10.90
2023-02-04T15:39:43.024Z,11.38
2023-02-04T15:42:13.495Z,10.77
2023-02-04T15:45:51.892Z,10.13
2023-02-04T15:47:40.265Z,9.57
2023-02-04T15:50:14.835Z,10.57
2023-02-04T15:52:45.000Z,10.35
2023-02-04T15:55:15.027Z,10.60
2023-02-04T15:57:45.317Z,10.23
2023-02-04T16:00:18.051Z,11.38
2023-02-04T16:02:48.475Z,11.88
2023-02-04T16:05:18.846Z,11.67
2023-02-04T16:07:49.154Z,11.90
2023-02-04T16:10:20.513Z,11.40
2023-02-04T16:12:50.922Z,11.95
2023-02-04T16:15:21.475Z,12.00
2023-02-04T16:17:51.814Z,12.07
2023-02-04T16:20:26.603Z,11.85
2023-02-04T16:22:56.884Z,12.38
2023-02-04T16:25:27.642Z,11.10
2023-02-04T16:27:57.978Z,11.32
2023-02-04T16:30:28.275Z,11.70
2023-02-04T16:32:58.735Z,11.43
2023-02-04T16:35:29.656Z,11.05
2023-02-04T16:38:00.056Z,10.68
2023-02-04T16:40:31.848Z,12.00
2023-02-04T16:43:04.310Z,11.45
2023-02-04T16:45:35.779Z,11.98
2023-02-04T16:48:06.005Z,12.07
2023-02-04T16:50:36.499Z,11.23
2023-02-04T16:53:08.072Z,11.82
2023-02-04T16:55:38.526Z,11.65
2023-02-04T16:58:09.936Z,12.13
2023-02-04T17:03:17.109Z,11.63
2023-02-04T17:05:47.255Z,12.07
2023-02-04T17:08:17.696Z,11.45
2023-02-04T17:11:06.339Z,11.30
2023-02-04T17:13:36.800Z,12.02
2023-02-04T17:16:07.156Z,11.37
2023-02-04T17:18:39.494Z,11.40
2023-02-04T17:21:11.481Z,11.48
2023-02-04T17:23:42.827Z,12.32
2023-02-04T17:26:13.202Z,12.05
2023-02-04T17:28:43.483Z,11.70
2023-02-04T17:31:13.869Z,11.57
2023-02-04T17:33:44.920Z,13.35
2023-02-04T17:36:17.587Z,12.75
2023-02-04T17:38:47.927Z,12.45
2023-02-04T17:41:17.869Z,12.10
2023-02-04T17:43:47.852Z,11.98
2023-02-04T17:46:18.208Z,11.57
2023-02-04T17:48:51.767Z,11.70
2023-02-04T17:51:22.131Z,12.27
2023-02-04T17:53:52.266Z,12.40
2023-02-04T17:56:26.005Z,12.35
2023-02-04T17:58:58.570Z,12.63
2023-02-04T18:01:28.863Z,10.95
2023-02-04T18:04:02.354Z,11.37
2023-02-04T18:06:33.177Z,11.63
2023-02-04T18:09:07.361Z,11.30
2023-02-04T18:11:42.431Z,11.32
2023-02-04T18:14:26.654Z,11.32
2023-02-04T18:17:00.986Z,12.05
2023-02-04T18:19:33.637Z,12.52
2023-02-04T18:22:08.189Z,12.80
2023-02-04T18:24:42.372Z,12.15
2023-02-04T18:27:26.461Z,12.43
2023-02-04T18:29:58.852Z,11.52
2023-02-04T18:32:36.365Z,11.43
2023-02-04T18:35:46.201Z,11.70
2023-02-04T18:38:25.452Z,11.30
2023-02-04T18:41:03.701Z,10.65
2023-02-04T18:43:40.448Z,11.02
2023-02-04T18:46:26.580Z,10.85
2023-02-04T18:49:06.062Z,10.85
2023-02-04T18:51:40.987Z,11.32
2023-02-04T18:54:28.789Z,11.32
2023-02-04T18:57:20.260Z,10.63
2023-02-04T19:02:25.869Z,10.63
2023-02-04T19:05:12.416Z,10.40
2023-02-04T19:07:43.630Z,9.90
2023-02-04T19:10:34.053Z,10.45
2023-02-04T19:13:28.225Z,10.18
2023-02-04T19:16:25.936Z,10.68
2023-02-04T19:18:57.439Z,9.60
2023-02-04T19:21:30.989Z,11.50
2023-02-04T19:24:22.432Z,10.82
2023-02-04T19:27:06.745Z,12.38
2023-02-04T19:29:44.709Z,10.85
2023-02-04T19:32:34.345Z,10.80
2023-02-04T19:35:19.775Z,10.15
2023-02-04T19:37:57.123Z,11.25
2023-02-04T19:40:35.975Z,10.38
2023-02-04T19:43:25.424Z,9.82
2023-02-04T19:45:56.212Z,10.25
2023-02-04T19:48:38.340Z,10.48
2023-02-04T19:51:30.945Z,10.52
2023-02-04T19:54:14.201Z,10.50
2023-02-04T19:56:44.172Z,10.82
2023-02-04T19:59:32.819Z,10.40
2023-02-04T20:02:09.788Z,10.20
2023-02-04T20:04:45.095Z,9.68
2023-02-04T20:07:27.426Z,10.25
2023-02-04T20:10:24.249Z,10.00
2023-02-04T20:13:03.080Z,10.68
2023-02-04T20:15:33.917Z,10.35
2023-02-04T20:18:17.164Z,10.05
2023-02-04T20:20:47.339Z,10.65
2023-02-04T20:23:35.181Z,10.45
2023-02-04T20:26:05.208Z,11.77
2023-02-04T20:28:42.332Z,11.25
2023-02-04T20:31:39.705Z,11.68
2023-02-04T20:34:20.870Z,11.77
2023-02-04T20:36:51.708Z,11.10
2023-02-04T20:39:42.167Z,12.70
2023-02-04T20:42:31.830Z,13.38
2023-02-04T20:45:15.243Z,12.40
2023-02-04T20:47:45.443Z,12.00
2023-02-04T20:50:41.115Z,12.82
2023-02-04T20:53:39.183Z,13.25
2023-02-04T20:56:28.949Z,12.18
2023-02-04T20:59:15.641Z,12.50
2023-02-04T21:01:53.517Z,12.32
2023-02-04T21:04:39.548Z,12.15
2023-02-04T21:07:24.621Z,12.23
2023-02-04T21:09:54.953Z,12.75
2023-02-04T21:12:28.474Z,13.20
2023-02-04T21:16:17.199Z,13.98
2023-02-04T21:17:49.841Z,13.13
2023-02-04T21:20:21.306Z,12.90
2023-02-04T21:28:16.371Z,13.57
2023-02-04T21:30:46.839Z,13.93
2023-02-04T21:33:17.270Z,14.35
2023-02-04T21:35:47.636Z,14.05
2023-02-04T21:38:17.703Z,14.57
2023-02-04T21:40:47.738Z,14.30
2023-02-04T21:45:59.974Z,14.48
2023-02-04T21:48:30.262Z,14.77
2023-02-04T21:51:01.773Z,15.50
2023-02-04T21:56:01.176Z,14.80
2023-02-04T21:58:31.487Z,15.05
2023-02-04T22:01:02.661Z,15.40
2023-02-04T22:03:32.814Z,15.30
2023-02-04T22:06:02.853Z,15.45
2023-02-04T22:08:32.642Z,15.23
2023-02-04T22:11:03.067Z,17.08
2023-02-04T22:13:51.350Z,16.50
2023-02-04T22:16:21.821Z,17.83
2023-02-04T22:18:51.895Z,16.48
2023-02-04T22:21:21.722Z,16.67
2023-02-04T22:23:54.810Z,16.13
2023-02-04T22:26:24.826Z,16.88
2023-02-04T22:28:56.333Z,17.10
2023-02-04T22:31:27.417Z,17.45
2023-02-04T22:33:57.532Z,17.97
2023-02-04T22:36:27.473Z,17.58
2023-02-04T22:38:57.515Z,19.30
2023-02-04T22:41:29.729Z,18.60
2023-02-04T22:43:59.703Z,17.98
2023-02-04T22:46:31.666Z,17.90
2023-02-04T22:49:01.680Z,18.10
2023-02-04T22:51:31.527Z,17.67
2023-02-04T22:54:02.557Z,17.70
2023-02-04T22:56:33.523Z,18.65
2023-02-04T22:59:04.230Z,18.90
2023-02-04T23:01:34.277Z,17.65
2023-02-04T23:04:04.257Z,17.45
2023-02-04T23:06:35.488Z,17.27
2023-02-04T23:09:05.778Z,18.70
2023-02-04T23:11:36.112Z,17.52
2023-02-04T23:14:10.511Z,17.77
2023-02-04T23:16:40.858Z,19.35
2023-02-04T23:19:10.983Z,18.52
2023-02-04T23:21:41.230Z,19.13
2023-02-04T23:24:11.371Z,20.17
2023-02-04T23:26:41.526Z,19.63
2023-02-04T23:29:11.465Z,20.23
2023-02-04T23:31:41.315Z,20.48
2023-02-04T23:34:11.175Z,22.85
2023-02-04T23:36:41.022Z,23.75
2023-02-04T23:39:10.889Z,22.30
2023-02-04T23:41:41.054Z,21.52
2023-02-04T23:44:12.236Z,21.35
2023-02-04T23:46:42.827Z,24.48
2023-02-04T23:49:13.218Z,27.10
2023-02-04T23:51:43.266Z,29.67
2023-02-04T23:54:13.220Z,30.45
2023-02-04T23:56:43.254Z,30.45
2023-02-04T23:59:13.155Z,31.10
